createdAt,value
2023-02-18T00:02:15.617Z,52.80
2023-02-18T00:04:45.842Z,54.23
2023-02-18T00:07:15.770Z,52.63
2023-02-18T00:09:45.539Z,56.00
2023-02-18T00:12:15.228Z,51.43
2023-02-18T00:14:45.031Z,59.13
2023-02-18T00:17:14.906Z,59.50
2023-02-18T00:19:44.858Z,61.47
2023-02-18T00:22:14.392Z,53.07
2023-02-18T00:24:44.327Z,68.13
2023-02-18T00:27:14.192Z,59.67
2023-02-18T00:29:44.069Z,61.77
2023-02-18T00:32:13.956Z,69.95
2023-02-18T00:34:43.760Z,69.33
2023-02-18T00:37:13.582Z,64.53
2023-02-18T00:39:44.227Z,65.40
2023-02-18T00:42:15.356Z,64.27
2023-02-18T00:44:45.122Z,58.80
2023-02-18T00:47:16.825Z,65.20
2023-02-18T00:49:46.906Z,64.17
2023-02-18T00:52:16.718Z,60.10
2023-02-18T00:54:46.533Z,64.43
2023-02-18T00:57:16.627Z,64.10
2023-02-18T00:59:46.675Z,63.90
2023-02-18T01:02:16.688Z,59.43
2023-02-18T01:04:48.198Z,59.03
2023-02-18T01:07:18.007Z,63.27
2023-02-18T01:09:47.788Z,62.47
2023-02-18T01:12:17.930Z,64.10
2023-02-18T01:14:50.439Z,59.03
2023-02-18T01:17:20.263Z,61.33
2023-02-18T01:19:50.103Z,57.33
2023-02-18T01:22:20.205Z,62.10
2023-02-18T01:24:50.008Z,60.87
2023-02-18T01:27:19.811Z,61.27
2023-02-18T01:29:49.691Z,56.70
2023-02-18T01:32:19.399Z,59.63
2023-02-18T01:34:49.304Z,66.37
2023-02-18T01:37:19.639Z,53.48
2023-02-18T01:39:49.757Z,64.75
2023-02-18T01:42:24.906Z,66.73
2023-02-18T01:44:55.039Z,55.67
2023-02-18T01:47:24.798Z,56.20
2023-02-18T01:49:54.875Z,67.90
2023-02-18T01:52:27.413Z,64.53
2023-02-18T01:54:58.960Z,63.73
2023-02-18T01:57:36.122Z,60.30
2023-02-18T02:00:12.161Z,62.72
2023-02-18T02:02:47.136Z,61.73
2023-02-18T02:05:17.386Z,60.77
2023-02-18T02:07:50.221Z,57.03
2023-02-18T02:10:21.026Z,59.53
2023-02-18T02:13:05.886Z,51.40
2023-02-18T02:15:41.248Z,59.00
2023-02-18T02:18:23.644Z,63.42
2023-02-18T02:21:29.244Z,66.53
2023-02-18T02:24:21.337Z,61.87
2023-02-18T02:26:59.909Z,58.40
2023-02-18T02:29:38.745Z,63.30
2023-02-18T02:32:12.585Z,57.20
2023-02-18T02:35:00.403Z,60.87
2023-02-18T02:40:57.558Z,56.73
2023-02-18T02:43:38.367Z,52.30
2023-02-18T02:46:24.664Z,52.40
2023-02-18T02:52:43.622Z,53.77
2023-02-18T02:55:17.270Z,54.70
2023-02-18T02:57:53.571Z,53.23
2023-02-18T03:00:40.144Z,57.05
2023-02-18T03:03:35.310Z,52.17
2023-02-18T03:06:19.881Z,57.70
2023-02-18T03:08:59.792Z,60.33
2023-02-18T03:14:16.856Z,62.48
2023-02-18T03:16:53.719Z,64.17
2023-02-18T03:19:38.530Z,66.77
2023-02-18T03:22:21.178Z,63.72
2023-02-18T03:24:54.096Z,69.27
2023-02-18T03:27:33.586Z,62.37
2023-02-18T03:30:06.751Z,75.37
2023-02-18T03:32:37.621Z,67.20
2023-02-18T03:35:11.430Z,70.17
2023-02-18T03:37:50.352Z,66.70
2023-02-18T03:40:20.622Z,63.83
2023-02-18T03:42:50.836Z,61.50
2023-02-18T03:45:21.038Z,61.90
2023-02-18T03:47:50.995Z,63.30
2023-02-18T03:50:20.806Z,55.83
2023-02-18T03:52:51.230Z,58.13
2023-02-18T03:55:20.799Z,49.07
2023-02-18T03:57:50.690Z,48.83
2023-02-18T04:00:20.957Z,45.57
2023-02-18T04:02:50.872Z,44.73
2023-02-18T04:05:20.803Z,35.33
2023-02-18T04:07:50.385Z,33.90
2023-02-18T04:10:20.864Z,31.07
2023-02-18T04:12:50.650Z,30.80
2023-02-18T04:15:20.338Z,27.37
2023-02-18T04:17:50.990Z,22.20
2023-02-18T04:20:20.653Z,23.50
2023-02-18T04:22:50.573Z,20.93
2023-02-18T04:25:20.732Z,19.20
2023-02-18T04:27:50.406Z,20.25
2023-02-18T04:30:20.274Z,17.07
2023-02-18T04:32:50.078Z,16.37
2023-02-18T04:35:21.422Z,16.95
2023-02-18T04:37:51.295Z,13.27
2023-02-18T04:40:25.454Z,15.80
2023-02-18T04:42:55.490Z,15.25
2023-02-18T04:45:27.925Z,15.38
2023-02-18T04:47:57.702Z,14.87
2023-02-18T04:50:27.266Z,13.48
2023-02-18T04:52:59.896Z,12.57
2023-02-18T04:55:29.763Z,14.13
2023-02-18T04:57:59.919Z,14.58
2023-02-18T05:00:29.729Z,12.53
2023-02-18T05:02:59.847Z,13.22
2023-02-18T05:05:29.606Z,14.30
2023-02-18T05:07:59.489Z,13.03
2023-02-18T05:10:29.074Z,13.10
2023-02-18T05:12:58.960Z,13.23
2023-02-18T05:15:28.962Z,14.53
2023-02-18T05:17:58.888Z,15.53
2023-02-18T05:20:29.185Z,14.33
2023-02-18T05:22:58.979Z,15.00
2023-02-18T05:25:29.037Z,16.40
2023-02-18T05:27:59.082Z,15.97
2023-02-18T05:30:29.025Z,13.90
2023-02-18T05:32:58.866Z,14.23
2023-02-18T05:35:28.995Z,15.88
2023-02-18T05:37:59.060Z,15.63
2023-02-18T05:40:28.946Z,16.60
2023-02-18T05:42:58.824Z,16.37
2023-02-18T05:45:28.913Z,15.80
2023-02-18T05:47:58.768Z,17.83
2023-02-18T05:50:28.362Z,16.40
2023-02-18T05:52:58.187Z,17.97
2023-02-18T05:55:28.325Z,16.67
2023-02-18T05:57:58.486Z,12.97
2023-02-18T06:00:29.985Z,14.83
2023-02-18T06:03:00.479Z,16.77
2023-02-18T06:05:30.355Z,14.03
2023-02-18T06:08:00.193Z,17.43
2023-02-18T06:10:30.014Z,14.95
2023-02-18T06:13:01.479Z,16.60
2023-02-18T06:15:31.337Z,14.40
2023-02-18T06:18:01.106Z,14.70
2023-02-18T06:20:30.833Z,13.93
2023-02-18T06:23:00.478Z,13.78
2023-02-18T06:25:30.331Z,16.13
2023-02-18T06:28:00.121Z,15.43
2023-02-18T06:30:29.931Z,13.47
2023-02-18T06:32:59.690Z,15.83
2023-02-18T06:35:29.457Z,14.87
2023-02-18T06:37:59.227Z,14.33
2023-02-18T06:40:29.064Z,12.60
2023-02-18T06:42:58.938Z,12.07
2023-02-18T06:45:28.805Z,12.40
2023-02-18T06:47:58.630Z,13.47
2023-02-18T06:50:28.446Z,11.97
2023-02-18T06:52:59.496Z,14.60
2023-02-18T06:55:29.709Z,11.28
2023-02-18T06:57:59.673Z,10.47
2023-02-18T07:00:29.168Z,11.20
2023-02-18T07:02:59.090Z,11.80
2023-02-18T07:05:29.660Z,11.63
2023-02-18T07:07:59.397Z,10.50
2023-02-18T07:10:29.088Z,11.38
2023-02-18T07:12:58.857Z,8.90
2023-02-18T07:15:28.753Z,9.93
2023-02-18T07:17:58.606Z,9.10
2023-02-18T07:20:28.814Z,8.53
2023-02-18T07:22:58.883Z,9.40
2023-02-18T07:25:28.681Z,10.60
2023-02-18T07:27:58.543Z,9.23
2023-02-18T07:30:28.364Z,7.90
2023-02-18T07:32:58.133Z,7.90
2023-02-18T07:35:27.914Z,6.70
2023-02-18T07:37:58.017Z,7.57
2023-02-18T07:40:27.881Z,7.00
2023-02-18T07:42:57.410Z,7.90
2023-02-18T07:45:27.696Z,7.30
2023-02-18T07:47:57.575Z,8.70
2023-02-18T07:50:27.217Z,9.80
2023-02-18T07:52:57.104Z,12.97
2023-02-18T07:55:28.572Z,12.23
2023-02-18T07:57:59.684Z,16.60
2023-02-18T08:00:29.169Z,21.20
2023-02-18T08:02:59.096Z,23.20
2023-02-18T08:05:28.680Z,21.05
2023-02-18T08:07:58.883Z,23.00
2023-02-18T08:10:28.673Z,21.68
2023-02-18T08:12:58.767Z,31.10
2023-02-18T08:15:28.621Z,31.37
2023-02-18T08:17:58.610Z,26.17
2023-02-18T08:20:30.605Z,32.95
2023-02-18T08:23:00.212Z,25.87
2023-02-18T08:25:31.519Z,22.10
2023-02-18T08:28:01.636Z,19.80
2023-02-18T08:30:31.787Z,23.03
2023-02-18T08:33:01.692Z,25.97
2023-02-18T08:35:31.606Z,21.83
2023-02-18T08:38:01.530Z,24.87
2023-02-18T08:40:32.487Z,19.93
2023-02-18T08:43:02.325Z,16.73
2023-02-18T08:45:34.051Z,19.37
2023-02-18T08:48:16.115Z,28.20
2023-02-18T08:50:35.399Z,16.67
2023-02-18T08:53:05.711Z,18.50
2023-02-18T08:55:37.994Z,18.20
2023-02-18T08:58:10.235Z,19.85
2023-02-18T09:00:41.179Z,21.80
2023-02-18T09:03:14.324Z,14.15
2023-02-18T09:05:44.060Z,17.60
2023-02-18T09:08:13.838Z,22.95
2023-02-18T09:10:46.184Z,14.97
2023-02-18T09:13:15.160Z,18.40
2023-02-18T09:15:45.045Z,19.50
2023-02-18T09:18:14.920Z,17.53
2023-02-18T09:20:46.233Z,19.03
2023-02-18T09:23:16.334Z,21.03
2023-02-18T09:25:46.118Z,14.67
2023-02-18T09:28:17.573Z,18.40
2023-02-18T09:30:47.951Z,18.80
2023-02-18T09:33:18.033Z,14.75
2023-02-18T09:35:48.228Z,17.47
2023-02-18T09:38:19.113Z,14.70
2023-02-18T09:40:53.599Z,20.17
2023-02-18T09:43:43.259Z,18.45
2023-02-18T09:46:24.791Z,18.77
2023-02-18T09:48:56.520Z,16.87
2023-02-18T09:51:26.349Z,14.47
2023-02-18T09:53:56.395Z,15.83
2023-02-18T09:56:32.137Z,17.65
2023-02-18T09:59:04.686Z,22.17
2023-02-18T10:01:37.799Z,17.17
2023-02-18T10:04:18.980Z,14.20
2023-02-18T10:06:49.839Z,21.83
2023-02-18T10:09:25.611Z,12.83
2023-02-18T10:12:01.048Z,12.75
2023-02-18T10:14:31.589Z,23.77
2023-02-18T10:17:01.856Z,14.35
2023-02-18T10:19:37.350Z,16.60
2023-02-18T10:22:14.059Z,13.98
2023-02-18T10:24:48.868Z,13.47
2023-02-18T10:27:31.001Z,11.70
2023-02-18T10:30:21.221Z,12.77
2023-02-18T10:32:54.117Z,11.90
2023-02-18T10:35:32.585Z,16.67
2023-02-18T10:38:21.939Z,12.93
2023-02-18T10:41:14.046Z,11.60
2023-02-18T10:44:01.670Z,13.23
2023-02-18T10:46:37.377Z,11.87
2023-02-18T10:49:10.656Z,11.07
2023-02-18T10:51:43.506Z,14.63
2023-02-18T10:54:15.624Z,15.03
2023-02-18T10:56:50.818Z,11.33
2023-02-18T10:59:23.114Z,13.60
2023-02-18T11:01:58.398Z,18.23
2023-02-18T11:04:31.318Z,12.70
2023-02-18T11:07:06.229Z,11.23
2023-02-18T11:09:56.319Z,13.30
2023-02-18T11:12:29.018Z,18.73
2023-02-18T11:15:19.398Z,13.93
2023-02-18T11:17:54.749Z,13.60
2023-02-18T11:20:27.534Z,14.37
2023-02-18T11:23:09.210Z,9.23
2023-02-18T11:25:41.671Z,14.20
2023-02-18T11:28:20.596Z,13.16
2023-02-18T11:30:53.406Z,11.90
2023-02-18T11:33:32.078Z,10.10
2023-02-18T11:36:09.725Z,9.70
2023-02-18T11:38:48.277Z,12.23
2023-02-18T11:41:23.909Z,14.97
2023-02-18T11:43:57.428Z,10.77
2023-02-18T11:46:31.117Z,14.50
2023-02-18T11:49:20.825Z,19.30
2023-02-18T11:51:51.872Z,16.10
2023-02-18T11:54:31.318Z,14.73
2023-02-18T11:57:10.222Z,16.73
2023-02-18T11:59:41.864Z,20.73
2023-02-18T12:02:14.705Z,8.70
2023-02-18T12:05:04.341Z,11.80
2023-02-18T12:07:46.156Z,17.07
2023-02-18T12:10:27.954Z,15.36
2023-02-18T12:13:35.468Z,10.83
2023-02-18T12:16:12.253Z,10.43
2023-02-18T12:18:54.079Z,13.73
2023-02-18T12:21:47.519Z,11.17
2023-02-18T12:24:39.539Z,11.07
2023-02-18T12:27:18.300Z,14.00
2023-02-18T12:30:06.278Z,16.53
2023-02-18T12:32:39.111Z,10.20
2023-02-18T12:35:18.326Z,8.57
2023-02-18T12:38:09.197Z,12.07
2023-02-18T12:41:07.872Z,13.87
2023-02-18T12:44:06.606Z,12.13
2023-02-18T12:46:50.039Z,13.35
2023-02-18T12:49:34.666Z,19.37
2023-02-18T12:52:12.264Z,9.75
2023-02-18T12:55:05.793Z,14.17
2023-02-18T12:57:50.519Z,14.30
2023-02-18T13:00:30.969Z,8.93
2023-02-18T13:03:19.610Z,14.27
2023-02-18T13:06:13.552Z,17.27
2023-02-18T13:08:57.383Z,13.17
2023-02-18T13:11:52.845Z,12.53
2023-02-18T13:14:46.789Z,17.63
2023-02-18T13:17:19.139Z,10.27
2023-02-18T13:19:57.816Z,15.13
2023-02-18T13:22:30.576Z,12.97
2023-02-18T13:25:00.871Z,12.17
2023-02-18T13:27:36.350Z,14.27
2023-02-18T13:30:26.865Z,14.73
2023-02-18T13:33:24.776Z,11.43
2023-02-18T13:35:59.337Z,10.10
2023-02-18T13:38:35.031Z,9.40
2023-02-18T13:43:36.113Z,8.18
2023-02-18T13:46:16.367Z,15.50
2023-02-18T13:48:55.040Z,17.47
2023-02-18T13:51:48.683Z,14.07
2023-02-18T13:54:27.511Z,11.97
2023-02-18T13:57:03.624Z,13.87
2023-02-18T13:59:50.679Z,14.85
2023-02-18T14:02:29.676Z,10.18
2023-02-18T14:05:02.907Z,13.15
2023-02-18T14:07:44.724Z,14.30
2023-02-18T14:10:22.386Z,13.22
2023-02-18T14:15:28.167Z,12.33
2023-02-18T14:18:36.952Z,11.37
2023-02-18T14:21:17.728Z,12.35
2023-02-18T14:23:59.773Z,10.85
2023-02-18T14:26:47.062Z,15.33
2023-02-18T14:29:28.891Z,13.60
2023-02-18T14:32:07.522Z,18.40
2023-02-18T14:34:47.237Z,12.82
2023-02-18T14:37:29.110Z,13.13
2023-02-18T14:40:10.847Z,16.30
2023-02-18T14:42:43.455Z,16.45
2023-02-18T14:45:44.526Z,12.47
2023-02-18T14:48:48.753Z,14.58
2023-02-18T14:51:23.086Z,13.50
2023-02-18T14:53:53.913Z,12.40
2023-02-18T14:56:24.765Z,10.03
2023-02-18T14:58:57.516Z,10.00
2023-02-18T15:01:30.438Z,16.77
2023-02-18T15:04:03.331Z,11.23
2023-02-18T15:06:35.100Z,12.07
2023-02-18T15:09:16.584Z,11.40
2023-02-18T15:11:49.527Z,13.60
2023-02-18T15:14:24.605Z,10.87
2023-02-18T15:16:55.126Z,14.28
2023-02-18T15:19:28.191Z,12.07
2023-02-18T15:21:59.215Z,18.20
2023-02-18T15:24:37.737Z,11.60
2023-02-18T15:27:28.146Z,10.10
2023-02-18T15:30:01.016Z,17.20
2023-02-18T15:32:33.201Z,12.33
2023-02-18T15:35:05.682Z,10.63
2023-02-18T15:37:35.606Z,14.13
2023-02-18T15:40:09.654Z,11.80
2023-02-18T15:42:39.579Z,10.73
2023-02-18T15:45:27.755Z,12.83
2023-02-18T15:47:59.544Z,13.30
2023-02-18T15:50:32.980Z,7.78
2023-02-18T15:53:11.639Z,9.90
2023-02-18T15:55:44.569Z,12.37
2023-02-18T15:58:26.311Z,11.05
2023-02-18T16:00:59.626Z,12.53
2023-02-18T16:03:31.442Z,14.28
2023-02-18T16:06:18.762Z,17.40
2023-02-18T16:09:00.417Z,12.37
2023-02-18T16:11:35.932Z,12.23
2023-02-18T16:14:08.185Z,10.88
2023-02-18T16:16:39.741Z,15.30
2023-02-18T16:19:12.915Z,14.93
2023-02-18T16:21:47.072Z,11.27
2023-02-18T16:24:28.890Z,11.33
2023-02-18T16:27:00.783Z,21.30
2023-02-18T16:29:44.581Z,9.60
2023-02-18T16:32:14.541Z,11.53
2023-02-18T16:34:48.766Z,15.00
2023-02-18T16:37:36.650Z,16.93
2023-02-18T16:40:17.125Z,11.83
2023-02-18T16:42:46.926Z,14.03
2023-02-18T16:45:16.836Z,13.85
2023-02-18T16:47:49.417Z,16.17
2023-02-18T16:50:21.785Z,15.68
2023-02-18T16:52:53.306Z,14.57
2023-02-18T16:55:28.391Z,9.15
2023-02-18T16:57:58.262Z,11.77
2023-02-18T17:00:28.026Z,17.93
2023-02-18T17:03:00.069Z,15.77
2023-02-18T17:05:34.528Z,15.87
2023-02-18T17:08:23.297Z,15.10
2023-02-18T17:10:56.086Z,14.33
2023-02-18T17:13:29.142Z,12.97
2023-02-18T17:15:59.990Z,8.73
2023-02-18T17:18:29.580Z,16.35
2023-02-18T17:20:59.536Z,13.83
2023-02-18T17:23:29.754Z,13.80
2023-02-18T17:25:59.566Z,15.50
2023-02-18T17:28:29.181Z,17.10
2023-02-18T17:30:59.689Z,15.40
2023-02-18T17:33:29.702Z,15.87
2023-02-18T17:35:59.525Z,17.30
2023-02-18T17:38:29.712Z,12.60
2023-02-18T17:40:59.498Z,20.80
2023-02-18T17:43:29.061Z,11.45
2023-02-18T17:46:00.147Z,14.60
2023-02-18T17:48:31.718Z,16.83
2023-02-18T17:51:02.322Z,13.70
2023-02-18T17:53:32.248Z,14.53
2023-02-18T17:56:02.504Z,19.30
2023-02-18T17:58:32.260Z,15.80
2023-02-18T18:01:02.519Z,20.40
2023-02-18T18:03:32.269Z,18.63
2023-02-18T18:06:03.698Z,14.83
2023-02-18T18:08:33.492Z,23.93
2023-02-18T18:11:03.711Z,16.57
2023-02-18T18:13:33.695Z,16.97
2023-02-18T18:16:03.511Z,18.80
2023-02-18T18:18:33.303Z,21.50
2023-02-18T18:21:04.372Z,20.17
2023-02-18T18:23:35.995Z,15.53
2023-02-18T18:26:06.923Z,17.30
2023-02-18T18:28:37.738Z,16.27
2023-02-18T18:31:08.093Z,18.93
2023-02-18T18:33:41.414Z,20.73
2023-02-18T18:36:12.269Z,18.20
2023-02-18T18:38:42.105Z,10.60
2023-02-18T18:41:14.934Z,10.50
2023-02-18T18:43:45.170Z,9.50
2023-02-18T18:46:15.196Z,6.70
2023-02-18T18:48:45.375Z,9.63
2023-02-18T18:51:18.463Z,19.10
2023-02-18T18:53:48.390Z,24.93
2023-02-18T18:56:18.200Z,24.77
2023-02-18T18:58:49.910Z,22.33
2023-02-18T19:01:23.080Z,28.33
2023-02-18T19:03:53.087Z,23.73
2023-02-18T19:06:22.985Z,22.67
2023-02-18T19:08:52.922Z,29.70
2023-02-18T19:11:22.779Z,24.33
2023-02-18T19:13:52.614Z,29.83
2023-02-18T19:16:30.671Z,28.20
2023-02-18T19:19:00.460Z,24.97
2023-02-18T19:21:31.390Z,28.10
2023-02-18T19:24:01.391Z,25.23
2023-02-18T19:26:32.521Z,30.63
2023-02-18T19:29:02.583Z,27.67
2023-02-18T19:31:32.532Z,32.10
2023-02-18T19:34:02.435Z,26.60
2023-02-18T19:36:32.222Z,32.17
2023-02-18T19:39:02.049Z,32.60
2023-02-18T19:41:31.961Z,36.07
2023-02-18T19:44:01.844Z,34.00
2023-02-18T19:46:32.457Z,29.90
2023-02-18T19:49:02.342Z,37.70
2023-02-18T19:51:32.102Z,36.27
2023-02-18T19:54:01.975Z,36.43
2023-02-18T19:56:33.334Z,36.00
2023-02-18T19:59:03.119Z,34.57
2023-02-18T20:01:33.007Z,39.20
2023-02-18T20:04:02.921Z,42.93
2023-02-18T20:06:32.732Z,41.47
2023-02-18T20:09:05.279Z,34.30
2023-02-18T20:11:34.703Z,41.53
2023-02-18T20:14:09.237Z,37.66
2023-02-18T20:16:39.041Z,42.37
2023-02-18T20:19:08.805Z,39.13
2023-02-18T20:21:38.691Z,40.97
2023-02-18T20:24:11.593Z,33.93
2023-02-18T20:26:41.700Z,43.28
2023-02-18T20:29:11.753Z,40.70
2023-02-18T20:31:43.487Z,36.87
2023-02-18T20:34:14.915Z,39.63
2023-02-18T20:36:45.671Z,41.63
2023-02-18T20:39:16.628Z,41.00
2023-02-18T20:41:48.113Z,46.13
2023-02-18T20:44:19.568Z,39.85
2023-02-18T20:46:52.595Z,42.78
2023-02-18T20:49:23.158Z,43.50
2023-02-18T20:51:53.262Z,44.60
2023-02-18T20:54:23.229Z,48.25
2023-02-18T20:56:53.864Z,39.03
2023-02-18T20:59:23.761Z,38.70
2023-02-18T21:01:53.588Z,36.70
2023-02-18T21:04:23.365Z,49.60
2023-02-18T21:06:55.376Z,46.60
2023-02-18T21:09:26.142Z,41.90
2023-02-18T21:11:56.164Z,41.40
2023-02-18T21:14:25.614Z,48.10
2023-02-18T21:16:55.445Z,39.73
2023-02-18T21:19:25.215Z,41.40
2023-02-18T21:21:55.611Z,39.48
2023-02-18T21:24:25.448Z,42.70
2023-02-18T21:26:55.494Z,43.77
2023-02-18T21:29:25.669Z,44.58
2023-02-18T21:31:55.705Z,42.93
2023-02-18T21:34:25.970Z,50.33
2023-02-18T21:36:55.786Z,43.20
2023-02-18T21:39:25.681Z,45.87
2023-02-18T21:41:58.999Z,39.25
2023-02-18T21:44:40.290Z,42.45
2023-02-18T21:47:00.454Z,44.23
2023-02-18T21:49:30.445Z,44.63
2023-02-18T21:52:04.916Z,44.20
2023-02-18T21:54:39.066Z,41.90
2023-02-18T21:57:14.105Z,43.70
2023-02-18T21:59:45.301Z,45.63
2023-02-18T22:02:20.441Z,48.70
2023-02-18T22:04:51.542Z,50.48
2023-02-18T22:07:23.538Z,52.00
2023-02-18T22:09:56.756Z,48.98
2023-02-18T22:12:26.683Z,48.70
2023-02-18T22:14:56.476Z,49.17
2023-02-18T22:17:28.245Z,60.65
2023-02-18T22:19:58.131Z,55.83
2023-02-18T22:22:27.958Z,56.83
2023-02-18T22:24:57.731Z,56.37
2023-02-18T22:27:27.600Z,57.90
2023-02-18T22:29:57.453Z,57.00
2023-02-18T22:32:27.181Z,59.17
2023-02-18T22:34:57.399Z,57.25
2023-02-18T22:37:26.943Z,57.60
2023-02-18T22:39:56.734Z,62.07
2023-02-18T22:42:26.259Z,55.93
2023-02-18T22:44:57.057Z,53.00
2023-02-18T22:47:26.861Z,56.10
2023-02-18T22:49:57.047Z,54.60
2023-02-18T22:52:27.206Z,52.60
2023-02-18T22:54:57.086Z,52.23
2023-02-18T22:57:26.948Z,51.57
2023-02-18T22:59:57.507Z,57.27
2023-02-18T23:02:27.417Z,45.83
2023-02-18T23:04:57.282Z,49.67
2023-02-18T23:07:27.098Z,49.57
2023-02-18T23:09:56.914Z,50.37
2023-02-18T23:12:26.585Z,47.87
2023-02-18T23:14:56.355Z,44.20
2023-02-18T23:17:26.197Z,48.40
2023-02-18T23:19:56.067Z,48.33
2023-02-18T23:22:32.923Z,41.10
2023-02-18T23:25:03.516Z,41.80
2023-02-18T23:27:33.570Z,40.20
2023-02-18T23:30:03.869Z,37.78
2023-02-18T23:32:33.700Z,42.93
2023-02-18T23:35:03.580Z,40.00
2023-02-18T23:37:50.758Z,39.97
2023-02-18T23:40:20.566Z,38.95
2023-02-18T23:42:50.352Z,39.67
2023-02-18T23:45:19.972Z,32.27
2023-02-18T23:47:49.732Z,32.67
2023-02-18T23:50:19.815Z,34.45
2023-02-18T23:52:50.337Z,41.40
2023-02-18T23:55:19.826Z,40.17
2023-02-18T23:57:52.392Z,32.98
